»·PEaware :: SWA1538 KLAS-KSMF

SWA1538 :: KLAS-KSMF

FLIGHT INFORMATION

Flight Status: Arrived
Operator:
Southwest Airlines
More flights by this operator :: More flights under this callsign
Pilot: Jim P. (2486)
Aircraft: BOEING 737-700
(B737)
More flights by this aircraft type
Origin: KLAS McCarran Intl
United States
Destination: KSMF Sacramento Intl
United States
More flights between these airports :: More routes between these airports
Route: SHEAD1 KENNO DONNR SLMMR3
File this flight plan on PilotEdge
Remarks: RMK / SIMBRIEF
Altitude:
(Current/Filed)
38,000ft
Speed:
(Current/Filed)
440kts
Departed: 17-May-20 11:47 AM
Arrived: 17-May-20 12:57 PM
Distance/Time
Traveled:
344nm/1:10
Distance/Time
To Go:
Arrived

Flight Plot

Page will automatically refresh every two minutes.


Map Options




Map Legend


Flown Route
Filed Route
Departure Airport
Arrival Airport
Navaid (VOR, NDB)
Fix

Horizontal Profiles

Position Reports

Time Latitude Longitude Heading Altitude Ground
Speed
17-May-20 11:11 36.080509 -115.145705 251 2123ft 0kts
17-May-20 11:12 36.080509 -115.145705 251 2123ft 0kts
17-May-20 11:13 36.080509 -115.145705 251 2123ft 0kts
17-May-20 11:14 36.080509 -115.145705 251 2123ft 0kts
17-May-20 11:15 36.080509 -115.145705 251 2123ft 0kts
17-May-20 11:16 36.080509 -115.145705 251 2123ft 0kts
17-May-20 11:17 36.080509 -115.145705 251 2123ft 0kts
17-May-20 11:18 36.080509 -115.145705 251 2123ft 0kts
17-May-20 11:19 36.080509 -115.145705 251 2123ft 0kts
17-May-20 11:20 36.080509 -115.145705 251 2123ft 0kts
17-May-20 11:21 36.080509 -115.145705 251 2123ft 0kts
17-May-20 11:22 36.080509 -115.145705 251 2123ft 0kts
17-May-20 11:23 36.080509 -115.145705 251 2123ft 0kts
17-May-20 11:24 36.080509 -115.145705 251 2123ft 0kts
17-May-20 11:25 36.080509 -115.145705 251 2123ft 0kts
17-May-20 11:26 36.080509 -115.145705 251 2123ft 0kts
17-May-20 11:27 36.080509 -115.145705 251 2123ft 0kts
17-May-20 11:28 36.080509 -115.145705 251 2123ft 0kts
17-May-20 11:29 36.080509 -115.145705 251 2123ft 0kts
17-May-20 11:30 36.080627 -115.145332 236 2123ft 2kts
17-May-20 11:31 36.081029 -115.145297 120 2123ft 0kts
17-May-20 11:32 36.081027 -115.145292 120 2123ft 0kts
17-May-20 11:33 36.081023 -115.145285 120 2123ft 0kts
17-May-20 11:34 36.081020 -115.145278 120 2123ft 0kts
17-May-20 11:35 36.081017 -115.145272 120 2123ft 0kts
17-May-20 11:36 36.080785 -115.144904 146 2123ft 5kts
17-May-20 11:37 36.078526 -115.144554 207 2123ft 11kts
17-May-20 11:38 36.078668 -115.150014 271 2123ft 14kts
17-May-20 11:39 36.080640 -115.154407 335 2123ft 15kts
17-May-20 11:40 36.083691 -115.156229 325 2123ft 11kts
17-May-20 11:41 36.088428 -115.157222 26 2123ft 25kts
17-May-20 11:42 36.094189 -115.153919 22 2123ft 24kts
17-May-20 11:43 36.097973 -115.152543 298 2123ft 0kts
17-May-20 11:44 36.097976 -115.152550 298 2123ft 0kts
17-May-20 11:45 36.098086 -115.153802 214 2123ft 0kts
17-May-20 11:46 36.085421 -115.161127 208 2134ft 134kts
17-May-20 11:47 36.046421 -115.182274 205 3880ft 180kts
17-May-20 11:48 36.000373 -115.231969 240 5508ft 263kts
17-May-20 11:49 35.962252 -115.312661 226 7302ft 276kts
17-May-20 11:50 35.907025 -115.379409 222 9032ft 284kts
17-May-20 11:51 35.885765 -115.470627 269 10745ft 299kts
17-May-20 11:52 35.889200 -115.582699 267 11039ft 334kts
17-May-20 11:54 35.891495 -115.697395 267 12246ft 333kts
17-May-20 11:55 35.893381 -115.813428 266 15975ft 344kts
17-May-20 11:56 35.895353 -115.933785 269 18760ft 360kts
17-May-20 11:57 35.950941 -116.038481 313 18915ft 383kts
17-May-20 11:58 36.030287 -116.126591 311 18938ft 383kts
17-May-20 11:59 36.108060 -116.216082 311 18936ft 383kts
17-May-20 12:00 36.187262 -116.307348 311 21358ft 393kts
17-May-20 12:01 36.268769 -116.401370 311 24111ft 408kts
17-May-20 12:02 36.352899 -116.499536 310 26512ft 422kts
17-May-20 12:03 36.439573 -116.600937 310 28623ft 434kts
17-May-20 12:04 36.528585 -116.705210 310 30480ft 444kts
17-May-20 12:05 36.629358 -116.798163 322 32374ft 456kts
17-May-20 12:06 36.731513 -116.875411 321 34275ft 449kts
17-May-20 12:07 36.837900 -116.956631 320 35932ft 445kts
17-May-20 12:08 36.943339 -117.036913 320 37344ft 443kts
17-May-20 12:09 37.049026 -117.117755 320 37911ft 446kts
17-May-20 12:09 37.136252 -117.184870 320 37910ft 440kts
17-May-20 12:11 37.257780 -117.278937 319 37910ft 441kts
17-May-20 12:12 37.344667 -117.380782 301 37909ft 421kts
17-May-20 12:12 37.406367 -117.475199 301 37917ft 420kts
17-May-20 12:13 37.480783 -117.589287 300 37916ft 420kts
17-May-20 12:15 37.567921 -117.721862 300 37909ft 420kts
17-May-20 12:15 37.629579 -117.816910 300 37906ft 419kts
17-May-20 12:16 37.703163 -117.930826 300 37880ft 420kts
17-May-20 12:17 37.772920 -118.048106 296 37861ft 415kts
17-May-20 12:18 37.839577 -118.167261 296 37856ft 415kts
17-May-20 12:19 37.906500 -118.286551 296 37855ft 415kts
17-May-20 12:20 37.973863 -118.405423 296 37889ft 415kts
17-May-20 12:21 38.040811 -118.524466 296 37928ft 414kts
17-May-20 12:22 38.107552 -118.643845 295 37929ft 412kts
17-May-20 12:23 38.173439 -118.762176 295 37928ft 411kts
17-May-20 12:24 38.239379 -118.881042 295 37942ft 410kts
17-May-20 12:25 38.304856 -118.999503 294 37943ft 409kts
17-May-20 12:26 38.369942 -119.117685 294 37935ft 407kts
17-May-20 12:27 38.434855 -119.235983 294 37928ft 406kts
17-May-20 12:28 38.499328 -119.353903 294 37923ft 406kts
17-May-20 12:29 38.564022 -119.472661 293 37919ft 405kts
17-May-20 12:30 38.627517 -119.589634 292 37909ft 378kts
17-May-20 12:31 38.685074 -119.696041 292 36318ft 367kts
17-May-20 12:32 38.741545 -119.800783 291 34448ft 362kts
17-May-20 12:33 38.800419 -119.910342 291 31353ft 381kts
17-May-20 12:34 38.861153 -120.023042 291 28629ft 379kts
17-May-20 12:35 38.919732 -120.133160 291 26077ft 371kts
17-May-20 12:36 38.976347 -120.239907 291 24081ft 352kts
17-May-20 12:37 39.009315 -120.347843 273 22239ft 310kts
17-May-20 12:38 39.030364 -120.457757 273 20403ft 325kts
17-May-20 12:39 39.051299 -120.568182 274 18518ft 310kts
17-May-20 12:40 39.070570 -120.673451 268 16762ft 289kts
17-May-20 12:41 39.053717 -120.772418 245 15206ft 286kts
17-May-20 12:42 39.028606 -120.867024 245 13404ft 272kts
17-May-20 12:43 39.004813 -120.957377 245 11644ft 269kts
17-May-20 12:44 38.980099 -121.051256 245 10037ft 266kts
17-May-20 12:45 38.958307 -121.134737 245 8915ft 240kts
17-May-20 12:46 38.936082 -121.218733 246 7337ft 252kts
17-May-20 12:47 38.913869 -121.302085 246 5770ft 241kts
17-May-20 12:48 38.893386 -121.378744 244 5082ft 200kts
17-May-20 12:49 38.863778 -121.440018 232 4063ft 205kts
17-May-20 12:50 38.835799 -121.502082 254 2904ft 201kts
17-May-20 12:51 38.832519 -121.565135 259 2382ft 135kts
17-May-20 12:52 38.820517 -121.600946 191 2030ft 117kts
17-May-20 12:53 38.786844 -121.599842 181 1573ft 120kts
17-May-20 12:54 38.751573 -121.600343 181 907ft 128kts
17-May-20 12:55 38.716656 -121.601075 176 260ft 130kts
17-May-20 12:56 38.697300 -121.601072 145 36ft 18kts
17-May-20 12:57 38.697034 -121.596340 86 36ft 18kts
17-May-20 12:58 38.696257 -121.588726 146 36ft 18kts
17-May-20 12:59 38.694297 -121.587811 116 36ft 0kts
17-May-20 13:00 38.694297 -121.587811 116 36ft 0kts

Navigation Log

Ident Type
Flight plan parsing failed, navigation log unavailable